Strona główna
METAR-TAF:

METAR-TAF

Lotnisko :

Port lotniczy Kuwejt

Kuwejt, Kuwejt

Szerokość geograficzna: 29-13N, Długość geograficzna: 047-59E, wysokość: 55 m

Aktualna obserwacja pogody

Raport powstał 58 minut temu, godzina 22:00 UTC
Wiatr 5 kt od południowy wschód
Temperatura 17°C
Wilgotność 77%
Ciśnienie 1015 hPa
Widzialność: 5000 m
(słaby) zmętnienie

METAR: OKBK 232200Z 13005KT 5000 -HZ NSC 17/13 Q1015 NOSIG

czas: 01:58 (22:58 UTC)

Prognoza

Raport powstał 6 godziny i 13 minut temu, godzina 16:45 UTC
Prognoza ważna od 23 godzina 18 UTC do 24 godzina 24 UTC
Wiatr 12 kt od południowy wschód
Widzialność: 7000 m
Rozproszone chmury na wysokości 4000 ft
Przerywane chmury na wysokości 8000 ft
Przejściowo
od 23 godzina 18 UTC do 24 godzina 03 UTC
Widzialność: 3000 m

TAF: OKBK 231645Z 2318/2424 13012KT 7000 SCT040 BKN080 TEMPO 2318/2403 3000 -RA/BR

Obserwacja i prognoza pogody dla ponad 4000 lotnisk (raport METAR i TAF).

Dostępne stacje oznaczono żółtymi i czerwonymi punktami na mapie.

Najedź kursorem aby zobaczyć nazwę stacji.

Kliknij aby zobaczyć obserwacje i prognozy pogody.

Aby zmienić mapę: kliknij na zielony przycisk z czarnym krzyżykiem, aby powiększyć; na zielony przycisk z myślnikiem, aby pomniejszyć; na zielone strzałki, aby przejść do map sąsiednich.


METAR-TAF: